Airport Name : Christmas Island

Other Name : Christmas Island

ICAO : YPXM

IATA : XCH

FAA :

Latitude : -10.450556

Longitude : 105.690278

Country : Christmas Island

Local Date and Time : 30 Nov 2020 02:31

 

TAF (Terminal Aerodrome Forecast)

TAF YPXM 291719Z 2918/3018 15006KT 9999 -SHRA SCT012 FM300200 15010KT 9999 NSW SCT014 INTER 2918/3018 9999 BKN010

 

METAR (METeorological Aerodrome Report)

YPXM 291900Z AUTO 13005KT 9999 // BKN019 BKN025 OVC030 24/21 Q1011

YPXM 291830Z AUTO 13005KT 9999 // BKN021 24/21 Q1011 RF00.0/000.0

YPXM 291800Z AUTO 13006KT 9999 // BKN021 OVC027 24/20 Q1011

YPXM 291730Z AUTO 13006KT 9999 // BKN018 BKN024 24/21 Q1012

YPXM 291700Z AUTO 13004KT 9999 // SCT018 24/21 Q1012

YPXM 291630Z AUTO 13005KT 9999 // SCT016 BKN022 BKN029 24/21 Q1012

YPXM 291600Z AUTO 13005KT 9999 // BKN018 BKN032 24/21 Q1012

To Charter a Jet Click here.